Buoy 41607

sailwx.info

Track history (hours):
 
Tides and Currents Weather Stations Pressure Air Temp Water Temp Dewpoint Dewpoint Depression Visibility Wind Speed Wind Dir Waves Ship Positions

Drifting buoy 41607

Last reported at 2014-Oct-01 21:00 UTC. Time now 2014-Oct-02 00:36 UTC.
Position N 24°45' W 052°50'.

Water temperature 28.1 ° C

Date/timePositionNaut miles runAvg speedWind from/ knotsBaromVisibWave heightAir tempDewpointWater temp
2014-Oct-01 21:00N 24°45' W 052°50'0 0.4 28.1
2014-Oct-01 20:00N 24°45' W 052°51'1 0.8 28.1
2014-Oct-01 19:00N 24°45' W 052°50'2 2.4 28.2
2014-Oct-01 18:00N 24°47' W 052°48'1 0.9 28.2
2014-Oct-01 17:00N 24°47' W 052°49'0 0.0 28.1
2014-Oct-01 16:00N 24°47' W 052°49'0 0.0 28.1
2014-Oct-01 15:00N 24°47' W 052°49'3 0.5 28.1
2014-Oct-01 09:00N 24°50' W 052°51'0 0.0 27.9
2014-Oct-01 08:00N 24°50' W 052°51'0 0.1 27.9
2014-Oct-01 07:00N 24°50' W 052°51'0 0.0 27.9
2014-Oct-01 06:00N 24°50' W 052°51'0 0.1 27.9
2014-Oct-01 05:00N 24°50' W 052°51'0 0.0 27.9
2014-Oct-01 04:00N 24°50' W 052°51'0 0.0 28.0
2014-Oct-01 02:00N 24°50' W 052°51'1 0.2 28.0
2014-Sep-30 23:00N 24°50' W 052°50'0 0.5 28.0
2014-Sep-30 22:00N 24°50' W 052°50'0 0.3 28.0
2014-Sep-30 21:00N 24°50' W 052°50'2 0.8 28.1
2014-Sep-30 19:00N 24°51' W 052°48'0 0.0 28.1
2014-Sep-30 18:00N 24°51' W 052°48'0 0.3 28.1
2014-Sep-30 17:00N 24°51' W 052°48'1 0.4 28.1
2014-Sep-30 15:00N 24°52' W 052°48'0 0.0 28.0
2014-Sep-30 14:00N 24°52' W 052°48'2 1.8 28.0
2014-Sep-30 13:00N 24°54' W 052°47'0 0.0 28.0
2014-Sep-30 12:00N 24°54' W 052°47'0 0.0 28.0
2014-Sep-30 10:00N 24°54' W 052°47'2 0.9 27.9
2014-Sep-30 08:00N 24°55' W 052°48'0 0.0 28.0
2014-Sep-30 07:00N 24°55' W 052°48'0 0.0 28.0
2014-Sep-30 05:00N 24°55' W 052°48'1 0.7 28.0
2014-Sep-30 03:00N 24°56' W 052°49'0 0.0 28.1
2014-Sep-30 00:00N 24°56' W 052°49'0 0.0 28.2
2014-Sep-29 23:00N 24°56' W 052°49'1 0.3 28.2
2014-Sep-29 21:00N 24°56' W 052°49'1 1.5 28.4
2014-Sep-29 20:00N 24°56' W 052°47'0 0.0 28.5
2014-Sep-29 19:00N 24°56' W 052°47'1 0.3 28.6
2014-Sep-29 17:00N 24°56' W 052°46'1 0.6 28.6
2014-Sep-29 15:00N 24°57' W 052°45'1 0.8 28.5
2014-Sep-29 14:00N 24°57' W 052°45'2 1.7 28.3
2014-Sep-29 13:00N 24°59' W 052°44'1 0.2 28.1
2014-Sep-29 10:00N 24°59' W 052°43'3 1.3 27.9
2014-Sep-29 08:00N 25°02' W 052°43'0 0.0 27.9
2014-Sep-29 06:00N 25°02' W 052°43'2 0.5 28.0
2014-Sep-29 02:00N 25°03' W 052°44'1 0.3 28.3
2014-Sep-29 00:00N 25°03' W 052°45'2 0.8 28.6
2014-Sep-28 22:00N 25°03' W 052°43'1 0.5 29.0
2014-Sep-28 19:00N 25°04' W 052°44'1 1.1 29.5
2014-Sep-28 18:00N 25°04' W 052°43'0 0.1 29.4
2014-Sep-28 17:00N 25°04' W 052°43'4 0.8 29.5
2014-Sep-28 12:00N 25°06' W 052°40'0 0.1 27.9
2014-Sep-28 09:00N 25°06' W 052°39'1 0.6 27.8
2014-Sep-28 08:00N 25°06' W 052°39'2 0.8 27.8
2014-Sep-28 06:00N 25°08' W 052°39'1 1.1 27.8
2014-Sep-28 05:00N 25°09' W 052°39'2 0.5 27.9
2014-Sep-28 01:00N 25°10' W 052°38'1 0.6 27.9
2014-Sep-27 23:00N 25°11' W 052°39'0 0.0 28.0
2014-Sep-27 22:00N 25°11' W 052°39'1 0.3 28.0
2014-Sep-27 20:00N 25°11' W 052°39'0 0.0 28.2
2014-Sep-27 19:00N 25°11' W 052°39'0 0.0 28.3
2014-Sep-27 18:00N 25°11' W 052°39'0 0.2 28.3
2014-Sep-27 16:00N 25°12' W 052°38'0 0.0 28.1
2014-Sep-27 14:00N 25°12' W 052°38'0 0.5 27.9
2014-Sep-27 13:00N 25°11' W 052°38'2 0.6 27.8
2014-Sep-27 10:00N 25°11' W 052°36'0 0.0 27.7
2014-Sep-27 09:00N 25°11' W 052°36'0 0.1 27.7
2014-Sep-27 08:00N 25°11' W 052°36'1 0.6 27.7
2014-Sep-27 06:00N 25°12' W 052°35'3 0.7 27.7
2014-Sep-27 01:00N 25°15' W 052°32'2 0.5 27.8
2014-Sep-26 21:00N 25°16' W 052°32'0 0.2 27.9
2014-Sep-26 20:00N 25°16' W 052°32'1 0.3 28.0
2014-Sep-26 18:00N 25°17' W 052°32'1 0.1 28.0
2014-Sep-26 13:00N 25°17' W 052°33'1 0.9 27.7
2014-Sep-26 12:00N 25°17' W 052°32'0 0.1 27.7
2014-Sep-26 10:00N 25°16' W 052°32'1 0.3 27.7
2014-Sep-26 08:00N 25°16' W 052°31'1 0.5 27.7
2014-Sep-26 07:00N 25°16' W 052°31'0 0.1 27.7
2014-Sep-26 06:00N 25°16' W 052°31'5 1.0 27.7
2014-Sep-26 01:00N 25°18' W 052°26'1 0.4 27.8
2014-Sep-25 23:00N 25°18' W 052°26'1 0.4 27.8
2014-Sep-25 21:00N 25°19' W 052°26'1 0.5 27.8
2014-Sep-25 18:00N 25°21' W 052°25'0 0.0 27.9
2014-Sep-25 17:00N 25°21' W 052°25'1 0.8 27.9
2014-Sep-25 16:00N 25°21' W 052°26'0 0.0 27.9
2014-Sep-25 15:00N 25°21' W 052°26'1 0.4 27.8
2014-Sep-25 13:00N 25°21' W 052°27'1 0.9 27.7
2014-Sep-25 12:00N 25°21' W 052°26'0 0.0 27.7
2014-Sep-25 11:00N 25°21' W 052°26'1 0.7 27.7
2014-Sep-25 10:00N 25°20' W 052°26'0 0.0 27.7
2014-Sep-25 08:00N 25°20' W 052°26'0 0.2 27.7
2014-Sep-25 07:00N 25°20' W 052°26'4 0.6 27.7
2014-Sep-25 00:00N 25°18' W 052°22'4 1.8 27.8
2014-Sep-24 22:00N 25°21' W 052°19'0 0.0 27.8
2014-Sep-24 20:00N 25°21' W 052°19'0 0.0 27.8
2014-Sep-24 19:00N 25°21' W 052°19'3 0.9 27.8
2014-Sep-24 16:00N 25°24' W 052°19'0 0.0 27.8
2014-Sep-24 14:00N 25°24' W 052°19'1 0.2 27.8
2014-Sep-24 09:00N 25°23' W 052°20'3 0.6 27.7
2014-Sep-24 04:00N 25°21' W 052°18'0 0.0 27.8
2014-Sep-24 03:00N 25°21' W 052°18'0 0.0 27.8
2014-Sep-24 02:00N 25°21' W 052°18'1 0.4 27.8
2014-Sep-24 00:00N 25°20' W 052°17'1 0.9 27.8
2014-Sep-23 23:00N 25°20' W 052°16'7 1.1 27.9
2014-Sep-23 17:00N 25°25' W 052°11'0 0.0 27.9
2014-Sep-23 16:00N 25°25' W 052°11'0 0.0 27.9
2014-Sep-23 15:00N 25°25' W 052°11'1 0.3 27.8
2014-Sep-23 12:00N 25°26' W 052°11'0 0.2 27.6
2014-Sep-23 10:00N 25°25' W 052°11'1 0.6 27.6
2014-Sep-23 09:00N 25°26' W 052°12'0 0.0 27.6
2014-Sep-23 07:00N 25°26' W 052°12'4 0.7 27.6
2014-Sep-23 01:00N 25°22' W 052°11'0 0.2 27.8
2014-Sep-23 00:00N 25°22' W 052°11'3 1.1 27.8
2014-Sep-22 21:00N 25°20' W 052°08'0 0.0 27.9
2014-Sep-22 19:00N 25°20' W 052°08'4 4.1 28.0
2014-Sep-22 18:00N 25°20' W 052°03'0 0.0 27.9
2014-Sep-22 17:00N 25°20' W 052°03'0 0.0 27.9
2014-Sep-22 16:00N 25°20' W 052°03'2 2.4 27.8
2014-Sep-22 15:00N 25°22' W 052°02'0 0.0 27.7
2014-Sep-22 14:00N 25°22' W 052°02'0 0.0 27.7
2014-Sep-22 13:00N 25°22' W 052°02'3 2.7 27.7
2014-Sep-22 12:00N 25°24' W 052°01'1 0.2 27.7
2014-Sep-22 07:00N 25°25' W 052°01'0 0.0 27.7
2014-Sep-22 04:00N 25°25' W 052°01'1 0.5 27.7
2014-Sep-22 01:00N 25°24' W 052°02'1 0.6 27.8
2014-Sep-21 23:00N 25°23' W 052°01'0 0.0 27.8
2014-Sep-21 22:00N 25°23' W 052°01'5 4.7 27.9
2014-Sep-21 21:00N 25°20' W 051°57'   27.9
Track history (hours):
 
Tides and Currents Weather Stations Pressure Air Temp Water Temp Dewpoint Dewpoint Depression Visibility Wind Speed Wind Dir Waves Ship Positions

Drifting buoy 41607

Last reported at 2014-Oct-01 21:00 UTC. Time now 2014-Oct-02 00:36 UTC.
Position N 24°45' W 052°50'.

Water temperature 28.1 ° C

Date/timePositionNaut miles runAvg speedWind from/ knotsBaromVisibWave heightAir tempDewpointWater temp
2014-Oct-01 21:00N 24°45' W 052°50'0 0.4 28.1
2014-Oct-01 20:00N 24°45' W 052°51'1 0.8 28.1
2014-Oct-01 19:00N 24°45' W 052°50'2 2.4 28.2
2014-Oct-01 18:00N 24°47' W 052°48'1 0.9 28.2
2014-Oct-01 17:00N 24°47' W 052°49'0 0.0 28.1
2014-Oct-01 16:00N 24°47' W 052°49'0 0.0 28.1
2014-Oct-01 15:00N 24°47' W 052°49'3 0.5 28.1
2014-Oct-01 09:00N 24°50' W 052°51'0 0.0 27.9
2014-Oct-01 08:00N 24°50' W 052°51'0 0.1 27.9
2014-Oct-01 07:00N 24°50' W 052°51'0 0.0 27.9
2014-Oct-01 06:00N 24°50' W 052°51'0 0.1 27.9
2014-Oct-01 05:00N 24°50' W 052°51'0 0.0 27.9
2014-Oct-01 04:00N 24°50' W 052°51'0 0.0 28.0
2014-Oct-01 02:00N 24°50' W 052°51'1 0.2 28.0
2014-Sep-30 23:00N 24°50' W 052°50'0 0.5 28.0
2014-Sep-30 22:00N 24°50' W 052°50'0 0.3 28.0
2014-Sep-30 21:00N 24°50' W 052°50'2 0.8 28.1
2014-Sep-30 19:00N 24°51' W 052°48'0 0.0 28.1
2014-Sep-30 18:00N 24°51' W 052°48'0 0.3 28.1
2014-Sep-30 17:00N 24°51' W 052°48'1 0.4 28.1
2014-Sep-30 15:00N 24°52' W 052°48'0 0.0 28.0
2014-Sep-30 14:00N 24°52' W 052°48'2 1.8 28.0
2014-Sep-30 13:00N 24°54' W 052°47'0 0.0 28.0
2014-Sep-30 12:00N 24°54' W 052°47'0 0.0 28.0
2014-Sep-30 10:00N 24°54' W 052°47'2 0.9 27.9
2014-Sep-30 08:00N 24°55' W 052°48'0 0.0 28.0
2014-Sep-30 07:00N 24°55' W 052°48'0 0.0 28.0
2014-Sep-30 05:00N 24°55' W 052°48'1 0.7 28.0
2014-Sep-30 03:00N 24°56' W 052°49'0 0.0 28.1
2014-Sep-30 00:00N 24°56' W 052°49'0 0.0 28.2
2014-Sep-29 23:00N 24°56' W 052°49'1 0.3 28.2
2014-Sep-29 21:00N 24°56' W 052°49'1 1.5 28.4
2014-Sep-29 20:00N 24°56' W 052°47'0 0.0 28.5
2014-Sep-29 19:00N 24°56' W 052°47'1 0.3 28.6
2014-Sep-29 17:00N 24°56' W 052°46'1 0.6 28.6
2014-Sep-29 15:00N 24°57' W 052°45'1 0.8 28.5
2014-Sep-29 14:00N 24°57' W 052°45'2 1.7 28.3
2014-Sep-29 13:00N 24°59' W 052°44'1 0.2 28.1
2014-Sep-29 10:00N 24°59' W 052°43'3 1.3 27.9
2014-Sep-29 08:00N 25°02' W 052°43'0 0.0 27.9
2014-Sep-29 06:00N 25°02' W 052°43'2 0.5 28.0
2014-Sep-29 02:00N 25°03' W 052°44'1 0.3 28.3
2014-Sep-29 00:00N 25°03' W 052°45'2 0.8 28.6
2014-Sep-28 22:00N 25°03' W 052°43'1 0.5 29.0
2014-Sep-28 19:00N 25°04' W 052°44'1 1.1 29.5
2014-Sep-28 18:00N 25°04' W 052°43'0 0.1 29.4
2014-Sep-28 17:00N 25°04' W 052°43'4 0.8 29.5
2014-Sep-28 12:00N 25°06' W 052°40'0 0.1 27.9
2014-Sep-28 09:00N 25°06' W 052°39'1 0.6 27.8
2014-Sep-28 08:00N 25°06' W 052°39'2 0.8 27.8
2014-Sep-28 06:00N 25°08' W 052°39'1 1.1 27.8
2014-Sep-28 05:00N 25°09' W 052°39'2 0.5 27.9
2014-Sep-28 01:00N 25°10' W 052°38'1 0.6 27.9
2014-Sep-27 23:00N 25°11' W 052°39'0 0.0 28.0
2014-Sep-27 22:00N 25°11' W 052°39'1 0.3 28.0
2014-Sep-27 20:00N 25°11' W 052°39'0 0.0 28.2
2014-Sep-27 19:00N 25°11' W 052°39'0 0.0 28.3
2014-Sep-27 18:00N 25°11' W 052°39'0 0.2 28.3
2014-Sep-27 16:00N 25°12' W 052°38'0 0.0 28.1
2014-Sep-27 14:00N 25°12' W 052°38'0 0.5 27.9
2014-Sep-27 13:00N 25°11' W 052°38'2 0.6 27.8
2014-Sep-27 10:00N 25°11' W 052°36'0 0.0 27.7
2014-Sep-27 09:00N 25°11' W 052°36'0 0.1 27.7
2014-Sep-27 08:00N 25°11' W 052°36'1 0.6 27.7
2014-Sep-27 06:00N 25°12' W 052°35'3 0.7 27.7
2014-Sep-27 01:00N 25°15' W 052°32'2 0.5 27.8
2014-Sep-26 21:00N 25°16' W 052°32'0 0.2 27.9
2014-Sep-26 20:00N 25°16' W 052°32'1 0.3 28.0
2014-Sep-26 18:00N 25°17' W 052°32'1 0.1 28.0
2014-Sep-26 13:00N 25°17' W 052°33'1 0.9 27.7
2014-Sep-26 12:00N 25°17' W 052°32'0 0.1 27.7
2014-Sep-26 10:00N 25°16' W 052°32'1 0.3 27.7
2014-Sep-26 08:00N 25°16' W 052°31'1 0.5 27.7
2014-Sep-26 07:00N 25°16' W 052°31'0 0.1 27.7
2014-Sep-26 06:00N 25°16' W 052°31'5 1.0 27.7
2014-Sep-26 01:00N 25°18' W 052°26'1 0.4 27.8
2014-Sep-25 23:00N 25°18' W 052°26'1 0.4 27.8
2014-Sep-25 21:00N 25°19' W 052°26'1 0.5 27.8
2014-Sep-25 18:00N 25°21' W 052°25'0 0.0 27.9
2014-Sep-25 17:00N 25°21' W 052°25'1 0.8 27.9
2014-Sep-25 16:00N 25°21' W 052°26'0 0.0 27.9
2014-Sep-25 15:00N 25°21' W 052°26'1 0.4 27.8
2014-Sep-25 13:00N 25°21' W 052°27'1 0.9 27.7
2014-Sep-25 12:00N 25°21' W 052°26'0 0.0 27.7
2014-Sep-25 11:00N 25°21' W 052°26'1 0.7 27.7
2014-Sep-25 10:00N 25°20' W 052°26'0 0.0 27.7
2014-Sep-25 08:00N 25°20' W 052°26'0 0.2 27.7
2014-Sep-25 07:00N 25°20' W 052°26'4 0.6 27.7
2014-Sep-25 00:00N 25°18' W 052°22'4 1.8 27.8
2014-Sep-24 22:00N 25°21' W 052°19'0 0.0 27.8
2014-Sep-24 20:00N 25°21' W 052°19'0 0.0 27.8
2014-Sep-24 19:00N 25°21' W 052°19'3 0.9 27.8
2014-Sep-24 16:00N 25°24' W 052°19'0 0.0 27.8
2014-Sep-24 14:00N 25°24' W 052°19'1 0.2 27.8
2014-Sep-24 09:00N 25°23' W 052°20'3 0.6 27.7
2014-Sep-24 04:00N 25°21' W 052°18'0 0.0 27.8
2014-Sep-24 03:00N 25°21' W 052°18'0 0.0 27.8
2014-Sep-24 02:00N 25°21' W 052°18'1 0.4 27.8
2014-Sep-24 00:00N 25°20' W 052°17'1 0.9 27.8
2014-Sep-23 23:00N 25°20' W 052°16'7 1.1 27.9
2014-Sep-23 17:00N 25°25' W 052°11'0 0.0 27.9
2014-Sep-23 16:00N 25°25' W 052°11'0 0.0 27.9
2014-Sep-23 15:00N 25°25' W 052°11'1 0.3 27.8
2014-Sep-23 12:00N 25°26' W 052°11'0 0.2 27.6
2014-Sep-23 10:00N 25°25' W 052°11'1 0.6 27.6
2014-Sep-23 09:00N 25°26' W 052°12'0 0.0 27.6
2014-Sep-23 07:00N 25°26' W 052°12'4 0.7 27.6
2014-Sep-23 01:00N 25°22' W 052°11'0 0.2 27.8
2014-Sep-23 00:00N 25°22' W 052°11'3 1.1 27.8
2014-Sep-22 21:00N 25°20' W 052°08'0 0.0 27.9
2014-Sep-22 19:00N 25°20' W 052°08'4 4.1 28.0
2014-Sep-22 18:00N 25°20' W 052°03'0 0.0 27.9
2014-Sep-22 17:00N 25°20' W 052°03'0 0.0 27.9
2014-Sep-22 16:00N 25°20' W 052°03'2 2.4 27.8
2014-Sep-22 15:00N 25°22' W 052°02'0 0.0 27.7
2014-Sep-22 14:00N 25°22' W 052°02'0 0.0 27.7
2014-Sep-22 13:00N 25°22' W 052°02'3 2.7 27.7
2014-Sep-22 12:00N 25°24' W 052°01'1 0.2 27.7
2014-Sep-22 07:00N 25°25' W 052°01'0 0.0 27.7
2014-Sep-22 04:00N 25°25' W 052°01'1 0.5 27.7
2014-Sep-22 01:00N 25°24' W 052°02'1 0.6 27.8
2014-Sep-21 23:00N 25°23' W 052°01'0 0.0 27.8
2014-Sep-21 22:00N 25°23' W 052°01'5 4.7 27.9
2014-Sep-21 21:00N 25°20' W 051°57'   27.9

Dump ship's entire track history